createdAt,value
2017-04-12T00:00:34.671Z,0
2017-04-12T00:01:34.658Z,0
2017-04-12T00:02:34.649Z,0
2017-04-12T00:03:34.644Z,0
2017-04-12T00:04:34.630Z,0
2017-04-12T00:05:34.622Z,0
2017-04-12T00:06:34.614Z,0
2017-04-12T00:07:34.604Z,0
2017-04-12T00:08:34.594Z,0
2017-04-12T00:09:34.588Z,0
2017-04-12T00:10:34.574Z,0
2017-04-12T00:11:34.568Z,0
2017-04-12T00:12:34.253Z,0
2017-04-12T00:13:34.553Z,0
2017-04-12T00:14:34.540Z,0
2017-04-12T00:15:34.527Z,0
2017-04-12T00:16:34.526Z,0
2017-04-12T00:17:34.513Z,0
2017-04-12T00:18:34.503Z,0
2017-04-12T00:19:34.494Z,0
2017-04-12T00:20:34.483Z,0
2017-04-12T00:21:34.475Z,0
2017-04-12T00:22:34.465Z,0
2017-04-12T00:23:34.453Z,0
2017-04-12T00:24:34.448Z,0
2017-04-12T00:25:34.435Z,0
2017-04-12T00:26:34.426Z,0
2017-04-12T00:27:34.424Z,0
2017-04-12T00:28:34.407Z,0
2017-04-12T00:29:34.399Z,0
2017-04-12T00:30:34.735Z,0
2017-04-12T00:31:34.384Z,0
2017-04-12T00:32:34.375Z,0
2017-04-12T00:33:34.367Z,0
2017-04-12T00:34:34.363Z,0
2017-04-12T00:35:34.341Z,0
2017-04-12T00:36:34.031Z,0
2017-04-12T00:37:34.326Z,0
2017-04-12T00:38:34.321Z,0
2017-04-12T00:39:34.307Z,0
2017-04-12T00:40:34.294Z,0
2017-04-12T00:41:34.325Z,0
2017-04-12T00:42:34.274Z,0
2017-04-12T00:43:34.281Z,0
2017-04-12T00:44:34.256Z,0
2017-04-12T00:45:34.254Z,0
2017-04-12T00:46:34.237Z,0
2017-04-12T00:47:34.230Z,0
2017-04-12T00:48:34.220Z,0
2017-04-12T00:49:34.218Z,0
2017-04-12T00:50:33.902Z,0
2017-04-12T00:51:34.198Z,0
2017-04-12T00:52:34.195Z,0
2017-04-12T00:53:34.181Z,0
2017-04-12T00:54:34.168Z,0
2017-04-12T00:55:34.154Z,0
2017-04-12T00:56:34.144Z,0
2017-04-12T00:57:34.140Z,0
2017-04-12T00:58:34.133Z,0
2017-04-12T00:59:34.121Z,0
2017-04-12T01:00:34.119Z,0
2017-04-12T01:01:34.098Z,0
2017-04-12T01:02:34.088Z,0
2017-04-12T01:03:34.079Z,0
2017-04-12T01:04:34.066Z,0
2017-04-12T01:05:34.057Z,0
2017-04-12T01:06:34.050Z,0
2017-04-12T01:07:34.047Z,0
2017-04-12T01:08:33.727Z,0
2017-04-12T01:09:34.023Z,0
2017-04-12T01:10:34.011Z,0
2017-04-12T01:11:34.003Z,0
2017-04-12T01:12:33.996Z,0
2017-04-12T01:13:33.680Z,0
2017-04-12T01:14:33.977Z,0
2017-04-12T01:15:33.966Z,0
2017-04-12T01:16:33.952Z,0
2017-04-12T01:17:33.644Z,0
2017-04-12T01:18:33.629Z,0
2017-04-12T01:19:33.925Z,0
2017-04-12T01:20:33.915Z,0
2017-04-12T01:21:33.604Z,0
2017-04-12T01:22:33.899Z,0
2017-04-12T01:23:33.891Z,0
2017-04-12T01:24:33.269Z,0
2017-04-12T01:25:33.874Z,0
2017-04-12T01:26:33.260Z,0
2017-04-12T01:27:33.847Z,0
2017-04-12T01:28:33.847Z,0
2017-04-12T01:29:33.523Z,0
2017-04-12T01:30:33.819Z,0
2017-04-12T01:31:33.811Z,0
2017-04-12T01:32:33.191Z,0
2017-04-12T01:33:33.796Z,0
2017-04-12T01:34:33.177Z,0
2017-04-12T01:35:33.772Z,0
2017-04-12T01:36:33.766Z,0
2017-04-12T01:37:33.755Z,0
2017-04-12T01:38:33.740Z,0
2017-04-12T01:39:33.735Z,0
2017-04-12T01:40:33.723Z,0
2017-04-12T01:41:33.715Z,0
2017-04-12T01:42:33.702Z,0
2017-04-12T01:43:33.696Z,0
2017-04-12T01:44:33.686Z,0
2017-04-12T01:45:33.674Z,0
2017-04-12T01:46:33.665Z,0
2017-04-12T01:47:33.658Z,0
2017-04-12T01:48:33.646Z,0
2017-04-12T01:49:33.333Z,0
2017-04-12T01:50:33.327Z,0
2017-04-12T01:51:33.628Z,0
2017-04-12T01:52:33.307Z,0
2017-04-12T01:53:33.600Z,0
2017-04-12T01:54:33.589Z,0
2017-04-12T01:55:33.584Z,0
2017-04-12T01:56:33.269Z,0
2017-04-12T01:57:33.561Z,0
2017-04-12T01:58:33.550Z,0
2017-04-12T01:59:33.544Z,0
2017-04-12T02:00:33.534Z,0
2017-04-12T02:01:33.524Z,0
2017-04-12T02:02:33.214Z,0
2017-04-12T02:03:33.508Z,0
2017-04-12T02:04:33.503Z,0
2017-04-12T02:05:33.487Z,0
2017-04-12T02:06:33.480Z,0
2017-04-12T02:07:33.466Z,0
2017-04-12T02:08:33.461Z,0
2017-04-12T02:09:33.449Z,0
2017-04-12T02:10:33.439Z,0
2017-04-12T02:11:33.430Z,0
2017-04-12T02:12:33.114Z,0
2017-04-12T02:13:33.413Z,0
2017-04-12T02:14:33.399Z,0
2017-04-12T02:15:33.394Z,0
2017-04-12T02:16:33.381Z,0
2017-04-12T02:17:33.369Z,0
2017-04-12T02:18:33.364Z,0
2017-04-12T02:19:33.352Z,0
2017-04-12T02:20:33.343Z,0
2017-04-12T02:21:33.335Z,0
2017-04-12T02:22:33.325Z,0
2017-04-12T02:23:33.316Z,0
2017-04-12T02:24:33.003Z,0
2017-04-12T02:25:33.295Z,0
2017-04-12T02:26:33.287Z,0
2017-04-12T02:27:33.277Z,0
2017-04-12T02:28:33.270Z,0
2017-04-12T02:29:33.258Z,0
2017-04-12T02:30:32.945Z,0
2017-04-12T02:31:32.937Z,0
2017-04-12T02:32:33.230Z,0
2017-04-12T02:33:33.267Z,0
2017-04-12T02:34:33.222Z,0
2017-04-12T02:35:33.242Z,0
2017-04-12T02:36:33.238Z,0
2017-04-12T02:37:33.184Z,0
2017-04-12T02:38:33.174Z,0
2017-04-12T02:39:33.173Z,0
2017-04-12T02:40:33.154Z,0
2017-04-12T02:41:33.146Z,0
2017-04-12T02:42:33.143Z,0
2017-04-12T02:43:33.125Z,0
2017-04-12T02:44:33.115Z,0
2017-04-12T02:45:33.107Z,0
2017-04-12T02:46:33.096Z,0
2017-04-12T02:47:33.088Z,0
2017-04-12T02:48:33.087Z,0
2017-04-12T02:49:33.075Z,0
2017-04-12T02:50:33.057Z,0
2017-04-12T02:51:33.045Z,0
2017-04-12T02:52:33.040Z,0
2017-04-12T02:53:33.029Z,0
2017-04-12T02:54:33.018Z,0
2017-04-12T02:55:33.011Z,0
2017-04-12T02:56:33.001Z,0
2017-04-12T02:57:32.997Z,0
2017-04-12T02:58:32.982Z,0
2017-04-12T02:59:32.674Z,0
2017-04-12T03:00:32.964Z,0
2017-04-12T03:01:32.961Z,0
2017-04-12T03:02:32.944Z,0
2017-04-12T03:03:32.943Z,0
2017-04-12T03:04:32.927Z,0
2017-04-12T03:05:32.918Z,0
2017-04-12T03:06:32.908Z,0
2017-04-12T03:07:32.900Z,0
2017-04-12T03:08:32.890Z,0
2017-04-12T03:09:32.886Z,0
2017-04-12T03:10:32.868Z,0
2017-04-12T03:11:32.864Z,0
2017-04-12T03:12:32.855Z,0
2017-04-12T03:13:32.843Z,0
2017-04-12T03:14:32.831Z,0
2017-04-12T03:15:32.824Z,0
2017-04-12T03:16:32.814Z,0
2017-04-12T03:17:32.803Z,0
2017-04-12T03:18:32.800Z,0
2017-04-12T03:19:32.787Z,0
2017-04-12T03:20:32.776Z,0
2017-04-12T03:21:32.769Z,0
2017-04-12T03:22:32.760Z,0
2017-04-12T03:23:32.745Z,0
2017-04-12T03:24:32.746Z,0
2017-04-12T03:25:32.729Z,0
2017-04-12T03:26:32.722Z,0
2017-04-12T03:27:32.714Z,0
2017-04-12T03:28:32.704Z,0
2017-04-12T03:29:32.704Z,0
2017-04-12T03:30:32.682Z,0
2017-04-12T03:31:32.676Z,0
2017-04-12T03:32:32.665Z,0
2017-04-12T03:33:32.350Z,0
2017-04-12T03:34:32.945Z,0
2017-04-12T03:35:32.635Z,0
2017-04-12T03:36:32.628Z,0
2017-04-12T03:37:32.619Z,0
2017-04-12T03:38:32.612Z,0
2017-04-12T03:39:32.601Z,0
2017-04-12T03:40:32.593Z,0
2017-04-12T03:41:32.583Z,0
2017-04-12T03:42:32.574Z,0
2017-04-12T03:43:32.569Z,0
2017-04-12T03:44:32.251Z,0
2017-04-12T03:45:32.545Z,0
2017-04-12T03:46:32.556Z,4
2017-04-12T03:47:32.529Z,4
2017-04-12T03:48:32.526Z,4
2017-04-12T03:49:32.507Z,4
2017-04-12T03:50:32.496Z,4
2017-04-12T03:51:32.495Z,8
2017-04-12T03:52:32.479Z,4
2017-04-12T03:53:32.470Z,8
2017-04-12T03:54:32.463Z,8
2017-04-12T03:55:32.454Z,8
2017-04-12T03:56:32.445Z,8
2017-04-12T03:57:32.431Z,8
2017-04-12T03:58:32.121Z,12
2017-04-12T03:59:32.412Z,16
2017-04-12T04:00:32.403Z,16
2017-04-12T04:01:32.400Z,16
2017-04-12T04:02:32.385Z,16
2017-04-12T04:03:32.420Z,20
2017-04-12T04:04:32.370Z,20
2017-04-12T04:05:32.358Z,24
2017-04-12T04:06:32.358Z,32
2017-04-12T04:07:32.338Z,32
2017-04-12T04:08:32.338Z,40
2017-04-12T04:09:32.321Z,52
2017-04-12T04:10:32.311Z,60
2017-04-12T04:11:32.301Z,60
2017-04-12T04:12:32.291Z,60
2017-04-12T04:13:32.285Z,68
2017-04-12T04:14:32.271Z,88
2017-04-12T04:15:32.263Z,104
2017-04-12T04:16:32.262Z,120
2017-04-12T04:17:32.246Z,128
2017-04-12T04:18:32.234Z,136
2017-04-12T04:19:32.228Z,144
2017-04-12T04:20:32.221Z,156
2017-04-12T04:21:31.909Z,164
2017-04-12T04:22:32.204Z,168
2017-04-12T04:23:31.890Z,172
2017-04-12T04:24:32.187Z,172
2017-04-12T04:25:32.177Z,184
2017-04-12T04:26:31.863Z,196
2017-04-12T04:27:31.855Z,212
2017-04-12T04:28:32.146Z,236
2017-04-12T04:29:32.136Z,248
2017-04-12T04:30:32.128Z,260
2017-04-12T04:31:32.124Z,276
2017-04-12T04:32:32.109Z,280
2017-04-12T04:33:32.103Z,304
2017-04-12T04:34:32.091Z,356
2017-04-12T04:35:32.079Z,384
2017-04-12T04:36:32.071Z,400
2017-04-12T04:37:32.062Z,396
2017-04-12T04:38:31.750Z,408
2017-04-12T04:39:32.050Z,444
2017-04-12T04:40:31.731Z,516
2017-04-12T04:41:32.025Z,596
2017-04-12T04:42:32.018Z,660
2017-04-12T04:43:32.016Z,700
2017-04-12T04:44:32.001Z,752
2017-04-12T04:45:31.992Z,824
2017-04-12T04:46:31.982Z,820
2017-04-12T04:47:32.015Z,712
2017-04-12T04:48:31.965Z,760
2017-04-12T04:49:31.951Z,800
2017-04-12T04:50:31.947Z,852
2017-04-12T04:51:31.934Z,992
2017-04-12T04:52:31.924Z,1116
2017-04-12T04:53:31.917Z,1208
2017-04-12T04:54:31.908Z,1236
2017-04-12T04:55:31.900Z,1208
2017-04-12T04:56:31.932Z,1116
2017-04-12T04:57:31.887Z,1156
2017-04-12T04:58:31.874Z,1188
2017-04-12T04:59:31.862Z,1056
2017-04-12T05:00:31.853Z,932
2017-04-12T05:01:31.848Z,864
2017-04-12T05:02:31.843Z,804
2017-04-12T05:03:31.824Z,744
2017-04-12T05:04:31.819Z,756
2017-04-12T05:05:31.810Z,812
2017-04-12T05:06:31.799Z,888
2017-04-12T05:07:31.791Z,1000
2017-04-12T05:08:31.782Z,1088
2017-04-12T05:09:32.024Z,1204
2017-04-12T05:10:31.769Z,1368
2017-04-12T05:11:31.757Z,1584
2017-04-12T05:12:31.747Z,1752
2017-04-12T05:13:31.750Z,1800
2017-04-12T05:14:31.733Z,1900
2017-04-12T05:15:31.722Z,1868
2017-04-12T05:16:31.715Z,1760
2017-04-12T05:17:31.703Z,1824
2017-04-12T05:18:31.694Z,1940
2017-04-12T05:19:31.380Z,2080
2017-04-12T05:20:31.681Z,2096
2017-04-12T05:21:31.670Z,2576
2017-04-12T05:22:31.661Z,2940
2017-04-12T05:23:31.652Z,3016
2017-04-12T05:24:31.643Z,2900
2017-04-12T05:25:31.632Z,2800
2017-04-12T05:26:31.625Z,2892
2017-04-12T05:27:31.314Z,2988
2017-04-12T05:28:31.609Z,2928
2017-04-12T05:29:31.600Z,2884
2017-04-12T05:30:31.595Z,2976
2017-04-12T05:31:31.579Z,3092
2017-04-12T05:32:31.274Z,3124
2017-04-12T05:33:31.562Z,3172
2017-04-12T05:34:31.554Z,3332
2017-04-12T05:35:31.547Z,3500
2017-04-12T05:36:31.537Z,3592
2017-04-12T05:37:31.529Z,3444
2017-04-12T05:38:31.521Z,2960
2017-04-12T05:39:31.511Z,3120
2017-04-12T05:40:31.502Z,3196
2017-04-12T05:41:31.491Z,2940
2017-04-12T05:42:31.488Z,2732
2017-04-12T05:43:31.475Z,2612
2017-04-12T05:44:31.467Z,2632
2017-04-12T05:45:31.158Z,2752
2017-04-12T05:46:31.456Z,3112
2017-04-12T05:47:31.449Z,3216
2017-04-12T05:48:31.473Z,3248
2017-04-12T05:49:31.431Z,2848
2017-04-12T05:50:31.419Z,2712
2017-04-12T05:51:31.412Z,2432
2017-04-12T05:52:31.405Z,2244
2017-04-12T05:53:31.397Z,2456
2017-04-12T05:54:31.384Z,2876
2017-04-12T05:55:31.379Z,3196
2017-04-12T05:56:31.370Z,3300
2017-04-12T05:57:31.361Z,3668
2017-04-12T05:58:31.354Z,3848
2017-04-12T05:59:31.344Z,3656
2017-04-12T06:00:31.343Z,4060
2017-04-12T06:01:31.329Z,4916
2017-04-12T06:02:31.321Z,5560
2017-04-12T06:03:31.309Z,5964
2017-04-12T06:04:31.310Z,5636
2017-04-12T06:05:31.302Z,5452
2017-04-12T06:06:30.985Z,5244
2017-04-12T06:07:31.280Z,4936
2017-04-12T06:08:31.270Z,4372
2017-04-12T06:09:31.299Z,4092
2017-04-12T06:10:30.963Z,4012
2017-04-12T06:11:31.246Z,4116
2017-04-12T06:12:31.239Z,4836
2017-04-12T06:13:31.230Z,6324
2017-04-12T06:14:31.221Z,6956
2017-04-12T06:15:31.215Z,7132
2017-04-12T06:16:31.207Z,6504
2017-04-12T06:17:31.201Z,5636
2017-04-12T06:18:31.192Z,4920
2017-04-12T06:19:31.189Z,4340
2017-04-12T06:20:31.176Z,4000
2017-04-12T06:21:31.183Z,4156
2017-04-12T06:22:31.155Z,4764
2017-04-12T06:23:31.149Z,5692
2017-04-12T06:24:31.144Z,6144
2017-04-12T06:25:31.134Z,5576
2017-04-12T06:26:31.165Z,4884
2017-04-12T06:27:30.514Z,4556
2017-04-12T06:28:30.810Z,4136
2017-04-12T06:29:31.105Z,4276
2017-04-12T06:30:31.095Z,4732
2017-04-12T06:31:31.086Z,5596
2017-04-12T06:32:31.081Z,7152
2017-04-12T06:33:31.071Z,8132
2017-04-12T06:34:31.066Z,7832
2017-04-12T06:35:30.753Z,8140
2017-04-12T06:36:31.052Z,7572
2017-04-12T06:37:31.042Z,5928
2017-04-12T06:38:31.035Z,4980
2017-04-12T06:39:31.027Z,4576
2017-04-12T06:40:31.024Z,4676
2017-04-12T06:41:31.008Z,4988
2017-04-12T06:42:31.025Z,4744
2017-04-12T06:43:31.002Z,4444
2017-04-12T06:44:30.996Z,4624
2017-04-12T06:45:30.981Z,3972
2017-04-12T06:46:30.976Z,3440
2017-04-12T06:47:30.971Z,3776
2017-04-12T06:48:30.957Z,3468
2017-04-12T06:49:30.951Z,4068
2017-04-12T06:50:30.943Z,5564
2017-04-12T06:51:30.936Z,5060
2017-04-12T06:52:30.928Z,3716
2017-04-12T06:53:30.930Z,3316
2017-04-12T06:54:30.913Z,2992
2017-04-12T06:55:30.907Z,2776
2017-04-12T06:56:30.895Z,3124
2017-04-12T06:57:30.587Z,4372
2017-04-12T06:58:30.891Z,6296
2017-04-12T06:59:30.878Z,7816
2017-04-12T07:00:30.867Z,9080
2017-04-12T07:01:30.861Z,11956
2017-04-12T07:02:30.856Z,12112
2017-04-12T07:03:30.892Z,10252
2017-04-12T07:04:30.840Z,10740
2017-04-12T07:05:30.830Z,10344
2017-04-12T07:06:30.822Z,9312
2017-04-12T07:07:30.817Z,9504
2017-04-12T07:08:30.818Z,9460
2017-04-12T07:09:30.807Z,9452
2017-04-12T07:10:30.794Z,9768
2017-04-12T07:11:30.187Z,10496
2017-04-12T07:12:30.475Z,11244
2017-04-12T07:13:30.775Z,11920
2017-04-12T07:14:30.462Z,12044
2017-04-12T07:15:30.767Z,11444
2017-04-12T07:16:30.756Z,10832
2017-04-12T07:17:30.748Z,11392
2017-04-12T07:18:30.742Z,11436
2017-04-12T07:19:30.734Z,9200
2017-04-12T07:20:30.421Z,9816
2017-04-12T07:21:30.718Z,13796
2017-04-12T07:22:30.716Z,14956
2017-04-12T07:23:30.704Z,14320
2017-04-12T07:24:30.706Z,12500
2017-04-12T07:25:30.093Z,10160
2017-04-12T07:26:30.397Z,9764
2017-04-12T07:27:30.684Z,11712
2017-04-12T07:28:30.674Z,12736
2017-04-12T07:29:30.673Z,12860
2017-04-12T07:30:30.664Z,12592
2017-04-12T07:31:30.659Z,12364
2017-04-12T07:32:30.668Z,12036
2017-04-12T07:33:30.648Z,11580
2017-04-12T07:34:30.643Z,11092
2017-04-12T07:35:30.640Z,10624
2017-04-12T07:36:30.038Z,9224
2017-04-12T07:37:30.319Z,7240
2017-04-12T07:38:30.018Z,7380
2017-04-12T07:39:30.005Z,8448
2017-04-12T07:40:30.000Z,9804
2017-04-12T07:41:30.297Z,9512
2017-04-12T07:42:30.597Z,10880
2017-04-12T07:43:30.590Z,11712
2017-04-12T07:44:29.974Z,12108
2017-04-12T07:45:30.579Z,12100
2017-04-12T07:46:30.571Z,12052
2017-04-12T07:47:30.566Z,12840
2017-04-12T07:48:30.561Z,14240
2017-04-12T07:49:30.559Z,15220
2017-04-12T07:50:30.552Z,14832
2017-04-12T07:51:30.544Z,14852
2017-04-12T07:52:30.538Z,16480
2017-04-12T07:53:30.534Z,17888
2017-04-12T07:54:30.223Z,18976
2017-04-12T07:55:30.527Z,18912
2017-04-12T07:56:30.518Z,19200
2017-04-12T07:57:29.910Z,19040
2017-04-12T07:58:30.205Z,20128
2017-04-12T07:59:30.211Z,21248
2017-04-12T08:00:30.495Z,22560
2017-04-12T08:01:30.494Z,23776
2017-04-12T08:02:30.486Z,20416
2017-04-12T08:03:30.485Z,18560
2017-04-12T08:04:30.481Z,18368
2017-04-12T08:05:30.505Z,19520
2017-04-12T08:06:29.862Z,19904
2017-04-12T08:07:29.858Z,18400
2017-04-12T08:08:30.461Z,18784
2017-04-12T08:09:29.850Z,19808
2017-04-12T08:10:30.147Z,21536
2017-04-12T08:11:30.147Z,20384
2017-04-12T08:12:30.454Z,18784
2017-04-12T08:13:30.741Z,18912
2017-04-12T08:14:30.436Z,19296
2017-04-12T08:15:30.435Z,19264
2017-04-12T08:16:30.126Z,19808
2017-04-12T08:17:30.426Z,16480
2017-04-12T08:18:30.423Z,14404
2017-04-12T08:19:30.163Z,13468
2017-04-12T08:20:30.414Z,12924
2017-04-12T08:21:30.109Z,14204
2017-04-12T08:22:30.457Z,16096
2017-04-12T08:23:30.403Z,17632
2017-04-12T08:24:30.421Z,18688
2017-04-12T08:25:30.120Z,19648
2017-04-12T08:26:30.400Z,22048
2017-04-12T08:27:30.395Z,22272
2017-04-12T08:28:30.391Z,21056
2017-04-12T08:29:30.088Z,19488
2017-04-12T08:30:30.385Z,19456
2017-04-12T08:31:30.384Z,19360
2017-04-12T08:32:30.077Z,19264
2017-04-12T08:33:30.119Z,19776
2017-04-12T08:34:29.460Z,19776
2017-04-12T08:35:30.366Z,18112
2017-04-12T08:36:30.060Z,15640
2017-04-12T08:37:30.360Z,14604
2017-04-12T08:38:30.366Z,13716
2017-04-12T08:39:30.361Z,17088
2017-04-12T08:40:30.353Z,18784
2017-04-12T08:41:30.360Z,18528
2017-04-12T08:42:30.348Z,18688
2017-04-12T08:43:30.355Z,18656
2017-04-12T08:44:29.733Z,19040
2017-04-12T08:45:30.335Z,21312
2017-04-12T08:46:30.336Z,22112
2017-04-12T08:47:30.343Z,20480
2017-04-12T08:48:30.333Z,18912
2017-04-12T08:49:30.077Z,18816
2017-04-12T08:50:30.327Z,18752
2017-04-12T08:51:30.329Z,19520
2017-04-12T08:52:30.014Z,21056
2017-04-12T08:53:30.316Z,22080
2017-04-12T08:54:30.323Z,20640
2017-04-12T08:55:30.008Z,18176
2017-04-12T08:56:30.307Z,16288
2017-04-12T08:57:30.002Z,15636
2017-04-12T08:58:30.301Z,16224
2017-04-12T08:59:30.297Z,14832
2017-04-12T09:00:30.296Z,16704
2017-04-12T09:01:30.296Z,19680
2017-04-12T09:02:29.995Z,21952
2017-04-12T09:03:30.024Z,23584
2017-04-12T09:04:29.992Z,23680
2017-04-12T09:05:29.987Z,22880
2017-04-12T09:06:29.679Z,22656
2017-04-12T09:07:30.286Z,21824
2017-04-12T09:08:30.280Z,21952
2017-04-12T09:09:30.287Z,22208
2017-04-12T09:10:30.276Z,22144
2017-04-12T09:11:30.280Z,22112
2017-04-12T09:12:29.667Z,22208
2017-04-12T09:13:30.575Z,22880
2017-04-12T09:14:29.969Z,23520
2017-04-12T09:15:29.663Z,23904
2017-04-12T09:16:29.964Z,24256
2017-04-12T09:17:29.961Z,25888
2017-04-12T09:18:30.260Z,27296
2017-04-12T09:19:30.265Z,27456
2017-04-12T09:20:30.257Z,26368
2017-04-12T09:21:30.261Z,23840
2017-04-12T09:22:29.650Z,20000
2017-04-12T09:23:29.958Z,18944
2017-04-12T09:24:29.961Z,16672
2017-04-12T09:25:29.950Z,18304
2017-04-12T09:26:30.249Z,16128
2017-04-12T09:27:29.946Z,17056
2017-04-12T09:28:29.708Z,15720
2017-04-12T09:29:29.643Z,12700
2017-04-12T09:30:29.338Z,13876
2017-04-12T09:31:29.940Z,13452
2017-04-12T09:32:29.942Z,14260
2017-04-12T09:33:30.443Z,11216
2017-04-12T09:34:29.637Z,12444
2017-04-12T09:35:30.242Z,12348
2017-04-12T09:36:30.240Z,16704
2017-04-12T09:37:30.233Z,13132
2017-04-12T09:38:30.239Z,13744
2017-04-12T09:39:30.232Z,12224
2017-04-12T09:40:30.228Z,14524
2017-04-12T09:41:30.230Z,15912
2017-04-12T09:42:30.223Z,16032
2017-04-12T09:43:30.226Z,14388
2017-04-12T09:44:30.218Z,22208
2017-04-12T09:45:30.226Z,24416
2017-04-12T09:46:30.221Z,18816
2017-04-12T09:47:30.215Z,15700
2017-04-12T09:48:30.215Z,17952
2017-04-12T09:49:30.208Z,24096
2017-04-12T09:50:30.215Z,26080
2017-04-12T09:51:30.207Z,26592
2017-04-12T09:52:30.201Z,27360
2017-04-12T09:53:30.198Z,27392
2017-04-12T09:54:30.201Z,25856
2017-04-12T09:55:29.895Z,25504
2017-04-12T09:56:30.195Z,25472
2017-04-12T09:57:29.893Z,25248
2017-04-12T09:58:30.193Z,24832
2017-04-12T09:59:30.189Z,25184
2017-04-12T10:00:29.888Z,25888
2017-04-12T10:01:29.882Z,25312
2017-04-12T10:02:30.184Z,23264
2017-04-12T10:03:30.186Z,24640
2017-04-12T10:04:29.877Z,26592
2017-04-12T10:05:29.876Z,26816
2017-04-12T10:06:29.873Z,25056
2017-04-12T10:07:29.875Z,24800
2017-04-12T10:08:29.876Z,22336
2017-04-12T10:09:29.871Z,21696
2017-04-12T10:10:30.175Z,24576
2017-04-12T10:11:30.180Z,24416
2017-04-12T10:12:29.877Z,18912
2017-04-12T10:13:29.869Z,20800
2017-04-12T10:14:30.172Z,21216
2017-04-12T10:15:29.263Z,19456
2017-04-12T10:16:30.173Z,20064
2017-04-12T10:17:30.167Z,19552
2017-04-12T10:18:30.164Z,15388
2017-04-12T10:19:30.166Z,13136
2017-04-12T10:20:30.163Z,13680
2017-04-12T10:21:30.166Z,17760
2017-04-12T10:22:30.166Z,14840
2017-04-12T10:23:30.163Z,13676
2017-04-12T10:24:30.167Z,17248
2017-04-12T10:25:30.158Z,19552
2017-04-12T10:26:30.157Z,17344
2017-04-12T10:27:30.159Z,14436
2017-04-12T10:28:30.154Z,14596
2017-04-12T10:29:30.154Z,16800
2017-04-12T10:30:30.153Z,15720
2017-04-12T10:31:29.853Z,17792
2017-04-12T10:32:30.155Z,19264
2017-04-12T10:33:29.540Z,18208
2017-04-12T10:34:29.850Z,14744
2017-04-12T10:35:30.145Z,16864
2017-04-12T10:36:30.143Z,19360
2017-04-12T10:37:30.141Z,17600
2017-04-12T10:38:29.833Z,12476
2017-04-12T10:39:30.133Z,10376
2017-04-12T10:40:29.528Z,13944
2017-04-12T10:41:30.180Z,18592
2017-04-12T10:42:29.830Z,18016
2017-04-12T10:43:30.127Z,21952
2017-04-12T10:44:29.521Z,23616
2017-04-12T10:45:29.856Z,19136
2017-04-12T10:46:29.826Z,15512
2017-04-12T10:47:29.217Z,15104
2017-04-12T10:48:29.817Z,13720
2017-04-12T10:49:30.114Z,17632
2017-04-12T10:50:30.113Z,20864
2017-04-12T10:51:29.809Z,22528
2017-04-12T10:52:30.111Z,22112
2017-04-12T10:53:31.518Z,23360
2017-04-12T10:54:30.108Z,24064
2017-04-12T10:55:29.798Z,22592
2017-04-12T10:56:29.190Z,17856
2017-04-12T10:57:29.800Z,18432
2017-04-12T10:58:29.794Z,19840
2017-04-12T10:59:30.094Z,20896
2017-04-12T11:00:29.788Z,17888
2017-04-12T11:01:30.090Z,17280
2017-04-12T11:02:30.090Z,18368
2017-04-12T11:03:29.786Z,19648
2017-04-12T11:04:30.132Z,17760
2017-04-12T11:05:30.094Z,17760
2017-04-12T11:06:30.083Z,18016
2017-04-12T11:07:29.476Z,15476
2017-04-12T11:08:30.085Z,13020
2017-04-12T11:09:30.080Z,16736
2017-04-12T11:10:29.167Z,21632
2017-04-12T11:11:29.474Z,22208
2017-04-12T11:12:29.776Z,21312
2017-04-12T11:13:30.073Z,20704
2017-04-12T11:14:30.071Z,22240
2017-04-12T11:15:30.072Z,19424
2017-04-12T11:16:29.765Z,17728
2017-04-12T11:17:30.070Z,18176
2017-04-12T11:18:30.063Z,19904
2017-04-12T11:19:29.461Z,21088
2017-04-12T11:20:30.062Z,23008
2017-04-12T11:21:29.761Z,17856
2017-04-12T11:22:29.759Z,15936
2017-04-12T11:23:29.753Z,20064
2017-04-12T11:24:30.062Z,21984
2017-04-12T11:25:30.059Z,24704
2017-04-12T11:26:29.753Z,24288
2017-04-12T11:27:29.752Z,22528
2017-04-12T11:28:29.746Z,21152
2017-04-12T11:29:29.744Z,19040
2017-04-12T11:30:29.442Z,15732
2017-04-12T11:31:29.746Z,19168
2017-04-12T11:32:29.442Z,20224
2017-04-12T11:33:29.439Z,19360
2017-04-12T11:34:30.045Z,19392
2017-04-12T11:35:29.438Z,19264
2017-04-12T11:36:29.742Z,19552
2017-04-12T11:37:29.746Z,21632
2017-04-12T11:38:30.044Z,21472
2017-04-12T11:39:29.436Z,21504
2017-04-12T11:40:30.038Z,22528
2017-04-12T11:41:30.039Z,22784
2017-04-12T11:42:30.035Z,22240
2017-04-12T11:43:30.035Z,21760
2017-04-12T11:44:29.729Z,20320
2017-04-12T11:45:30.033Z,19104
2017-04-12T11:46:29.428Z,20224
2017-04-12T11:47:29.425Z,21280
2017-04-12T11:48:30.035Z,22912
2017-04-12T11:49:29.424Z,23424
2017-04-12T11:50:30.029Z,23040
2017-04-12T11:51:29.726Z,24384
2017-04-12T11:52:29.722Z,22368
2017-04-12T11:53:30.025Z,20608
2017-04-12T11:54:30.025Z,22016
2017-04-12T11:55:29.723Z,22848
2017-04-12T11:56:30.025Z,23744
2017-04-12T11:57:29.718Z,23744
2017-04-12T11:58:29.724Z,24704
2017-04-12T11:59:29.720Z,24800
2017-04-12T12:00:29.715Z,24832
2017-04-12T12:01:30.020Z,24800
2017-04-12T12:02:29.413Z,24128
2017-04-12T12:03:30.019Z,21696
2017-04-12T12:04:29.719Z,19040
2017-04-12T12:05:29.720Z,15936
2017-04-12T12:06:30.024Z,18720
2017-04-12T12:07:29.412Z,19520
2017-04-12T12:08:30.018Z,17184
2017-04-12T12:09:29.716Z,17792
2017-04-12T12:10:29.716Z,18208
2017-04-12T12:11:30.023Z,19456
2017-04-12T12:12:30.019Z,16576
2017-04-12T12:13:29.714Z,12284
2017-04-12T12:14:29.717Z,11256
2017-04-12T12:15:30.020Z,10812
2017-04-12T12:16:30.020Z,8892
2017-04-12T12:17:30.020Z,10216
2017-04-12T12:18:29.714Z,11252
2017-04-12T12:19:30.025Z,9468
2017-04-12T12:20:30.020Z,10656
2017-04-12T12:21:30.017Z,10584
2017-04-12T12:22:30.044Z,12128
2017-04-12T12:23:30.015Z,15704
2017-04-12T12:24:30.011Z,15988
2017-04-12T12:25:30.012Z,15304
2017-04-12T12:26:29.743Z,16864
2017-04-12T12:27:30.010Z,18976
2017-04-12T12:28:29.703Z,20416
2017-04-12T12:29:29.709Z,21376
2017-04-12T12:30:29.703Z,19904
2017-04-12T12:31:29.703Z,16672
2017-04-12T12:32:29.700Z,12776
2017-04-12T12:33:29.699Z,15448
2017-04-12T12:34:30.001Z,20096
2017-04-12T12:35:29.694Z,17888
2017-04-12T12:36:29.699Z,15092
2017-04-12T12:37:29.692Z,18016
2017-04-12T12:38:29.692Z,18624
2017-04-12T12:39:29.386Z,17312
2017-04-12T12:40:29.993Z,17696
2017-04-12T12:41:29.999Z,18720
2017-04-12T12:42:29.688Z,18144
2017-04-12T12:43:29.989Z,19040
2017-04-12T12:44:29.992Z,20992
2017-04-12T12:45:29.990Z,19776
2017-04-12T12:46:29.989Z,19456
2017-04-12T12:47:30.350Z,20384
2017-04-12T12:48:29.986Z,21920
2017-04-12T12:49:29.985Z,22336
2017-04-12T12:50:29.374Z,21824
2017-04-12T12:51:29.982Z,21728
2017-04-12T12:52:29.681Z,21472
2017-04-12T12:53:29.980Z,20640
2017-04-12T12:54:29.986Z,20224
2017-04-12T12:55:29.982Z,19872
2017-04-12T12:56:29.982Z,20000
2017-04-12T12:57:29.979Z,20000
2017-04-12T12:58:29.978Z,19744
2017-04-12T12:59:30.025Z,19840
2017-04-12T13:00:29.678Z,20288
2017-04-12T13:01:29.979Z,20448
2017-04-12T13:02:29.978Z,19808
2017-04-12T13:03:29.991Z,20320
2017-04-12T13:04:29.979Z,20544
2017-04-12T13:05:29.982Z,19840
2017-04-12T13:06:29.989Z,18976
2017-04-12T13:07:29.981Z,17792
2017-04-12T13:08:29.980Z,16096
2017-04-12T13:09:29.980Z,14152
2017-04-12T13:10:29.980Z,12780
2017-04-12T13:11:29.980Z,10904
2017-04-12T13:12:29.983Z,10188
2017-04-12T13:13:30.283Z,10348
2017-04-12T13:14:29.990Z,9668
2017-04-12T13:15:29.984Z,8928
2017-04-12T13:16:29.983Z,9960
2017-04-12T13:17:29.983Z,12432
2017-04-12T13:18:30.019Z,13340
2017-04-12T13:19:29.677Z,10612
2017-04-12T13:20:29.977Z,7504
2017-04-12T13:21:29.978Z,6836
2017-04-12T13:22:29.982Z,7368
2017-04-12T13:23:29.981Z,8440
2017-04-12T13:24:29.976Z,9304
2017-04-12T13:25:29.975Z,9936
2017-04-12T13:26:29.976Z,10292
2017-04-12T13:27:29.973Z,10304
2017-04-12T13:28:29.972Z,8948
2017-04-12T13:29:29.667Z,9044
2017-04-12T13:30:29.971Z,9960
2017-04-12T13:31:29.973Z,10368
2017-04-12T13:32:29.970Z,11588